Kezdőlap
METAR-TAF:

METAR-TAF

Repülőterek :

Anapa, Oroszország

földrajzi szélesség: 44-54N, földrajzi hosszúság: 037-19E, magasság: 53 m

Jelenlegi meteorológiai megfigyelések

A jelentés 35 perccel ezelõtt készült, 09:30 UTC
Keleti szél 12 kt, északkeleti és délkeleti között változik
Hőmérséklet 17°C
Páratartalom 52%
Légköri nyomás 1026 hPa
Látótávolság 10 km, vagy több
Szórványos felhőzet

METAR: URKA 230930Z 09006MPS 050V130 9999 SCT/// 17/07 Q1026 R04/010070 NOSIG RMK QFE766/1021

Idő: 13:05 (10:05 UTC)

Előrejelzés

A jelentés 2 órával és 14 perccel ezelõtt készült, 07:51 UTC
Az előrejelzés 23-én 09 óra UTC és 24-én 09 óra UTC között érvényes
Keleti szél 14 kt széllökések: 27 kt
Látótávolság 10 km, vagy több
felhőtlen 1500 m magasságban, és nincs gomolyfelhõ
23-én 15 óra UTC és 23-én 17 óra UTC között fokozatosan kialakuló
Délnyugati szél 6 kt széllökések: 16 kt

TAF: URKA 230751Z 2309/2409 08007G14MPS CAVOK BECMG 2315/2317 22003G08MPS

Meteorológiai megfigyelések és előrejelzések több, mint 4000 repülőtéren (METAR és TAF jelentéseket).

A térképen piros és sárga pontok jelzik az elérhető meteorológiai állomásokat.

Mozgassa az egeret a pont fölött, hogy megjelenjen az állomás neve.

Azután kattintson az időjárási megfigyelések és előrejelzések megtekintéséhez.

A térkép megváltoztatása: kattintson a fekete keresztel jelölt zöld gombra ráközelítéshez, a vonallal jelölt zöld gombra távolításhoz, vagy a zöld nyilakra a szomszédos térképek eléréséhez.


METAR-TAF: